createdAt,value
2017-11-20T17:39:32.864Z,5.36
2017-11-20T17:42:02.375Z,5.48
2017-11-20T17:44:31.223Z,5.55
2017-11-20T17:46:59.900Z,5.45
2017-11-20T17:49:27.594Z,5.51
2017-11-20T17:51:55.172Z,5.49
2017-11-20T17:54:22.899Z,5.53
2017-11-20T17:56:50.704Z,5.51
2017-11-20T17:59:58.430Z,5.36
2017-11-20T18:05:49.944Z,6.23
2017-11-20T18:08:19.207Z,6.35
2017-11-20T18:10:47.516Z,6.17
2017-11-20T18:13:16.424Z,6.02
2017-11-20T18:18:19.679Z,5.82
2017-11-20T18:20:47.709Z,5.76
2017-11-20T18:26:30.106Z,5.59
2017-11-20T18:29:23.018Z,5.51
2017-11-20T18:31:51.922Z,5.48
2017-11-20T18:34:19.708Z,5.35
2017-11-20T18:36:47.514Z,5.38
2017-11-20T18:39:15.982Z,5.37
2017-11-20T18:41:45.431Z,5.23
2017-11-20T18:44:14.043Z,5.25
2017-11-20T18:46:42.930Z,5.37
2017-11-20T18:49:25.994Z,5.31
2017-11-20T18:51:56.049Z,5.40
2017-11-20T18:54:24.663Z,5.89
2017-11-20T18:56:52.359Z,5.77
2017-11-20T19:03:09.726Z,5.34
2017-11-20T19:12:16.750Z,5.29
2017-11-20T19:18:00.605Z,5.34
2017-11-20T19:20:28.203Z,5.43
2017-11-20T19:22:58.924Z,5.27
2017-11-20T19:25:27.576Z,5.17
2017-11-20T19:28:08.969Z,5.26
2017-11-20T19:34:13.852Z,5.27
2017-11-20T19:36:53.248Z,5.36
2017-11-20T19:39:27.715Z,5.22
2017-11-20T19:44:58.496Z,5.30
2017-11-20T19:53:50.779Z,5.34
2017-11-20T19:56:18.503Z,5.26
2017-11-20T19:58:46.755Z,5.31
2017-11-20T20:01:15.630Z,5.18
2017-11-20T20:03:46.344Z,5.28
2017-11-20T20:06:14.899Z,5.36
2017-11-20T20:15:44.040Z,5.20
